METAR Data
IDs: Format: Raw Decoded Include TAF

Data at: 1235 UTC 05 Apr 2020

Region: TOP
KATL 051152Z 07004KT 10SM SCT150 BKN200 BKN250 16/08 A3001 RMK AO2 SLP158 T01560078 10172 20156 53018

KBOS 051154Z 16004KT 10SM BKN037 BKN140 05/02 A3008 RMK AO2 SLP186 T00500022 10050 20039 53012

KBWI 051154Z 21004KT 10SM BKN055 BKN250 11/07 A3008 RMK AO2 SLP186 T01060067 10117 20100 53012

KCLE 051151Z 02009KT 10SM OVC007 06/03 A3013 RMK AO2 SLP205 T00560028 10106 20056 53014

KCLT 051152Z 13008KT 10SM SCT190 BKN250 13/08 A3008 RMK AO2 SLP181 T01280078 10161 20122 53023 $

KCVG 051152Z 03007KT 4SM -RA BR BKN005 BKN055 OVC085 09/07 A3006 RMK AO2 RAB1056 SLP175 P0008 60010 70010 T00890072 10122 20089 50014

KDCA 051202Z 19007KT 10SM FEW006 SCT065 SCT250 09/08 A3010 RMK AO2 T00940083

KDEN 051153Z 20006KT 10SM FEW110 SCT220 03/M03 A2980 RMK AO2 SLP060 T00281028 10061 20028 53003

KDFW 051225Z 04006KT 3/4SM BR OVC003 08/08 A3006 RMK AO2 SFC VIS 2 T00830083

KDTW 051153Z 34008KT 10SM OVC013 06/02 A3014 RMK AO2 SLP208 T00560022 10078 20056 51014

KEWR 051151Z 00000KT 10SM BKN050 BKN070 BKN110 09/06 A3005 RMK AO2 SLP176 T00890061 10089 20067 53010

KFLL 051153Z 00000KT 10SM SCT037 BKN110 23/19 A2995 RMK AO2 SLP141 T02330189 10244 20217 53015

KIAD 051152Z 18003KT 10SM FEW050 FEW120 BKN250 08/06 A3008 RMK AO2 SLP186 T00780061 10078 20056 53009

KIAH 051153Z 33007KT 1/2SM BR OVC002 14/13 A3002 RMK AO2 SFC VIS 3/4 SLP166 70077 T01440133 10156 20144 53020

KJFK 051158Z 20004KT 10SM BKN008 BKN065 08/08 A3007 RMK AO2 T00830083

KLAS 051156Z 19012G23KT 10SM SCT140 BKN250 15/03 A2969 RMK AO2 SLP038 ACSL DSNT W T01500028 10189 20150 55002 $

KLAX 051153Z 25005KT 10SM FEW015 BKN023 OVC038 14/09 A2987 RMK AO2 SLP114 T01440094 10156 20144 55006

KLGA 051151Z 12005KT 10SM FEW011 SCT045 BKN065 BKN170 09/06 A3006 RMK AO2 SLP178 T00890061 10094 20083 53013

KMCO 051153Z 31006KT 10SM BKN060 BKN080 OVC110 22/13 A2998 RMK AO2 SLP150 T02170133 10217 20206 53026

KMDW 051153Z 03011G16KT 10SM FEW007 BKN120 03/01 A3019 RMK AO2 SLP231 70001 T00330011 10033 20028 53018

KMEM 051154Z 33005KT 7SM FEW100 09/08 A3008 RMK AO2 SLP184 T00890078 10133 20089 53015

KMIA 051153Z 00000KT 10SM FEW030 SCT070 BKN160 24/19 A2996 RMK AO2 SLP145 T02390189 10250 20222 53016

KMSP 051153Z 14004KT 10SM FEW110 M02/M05 A3017 RMK AO2 SLP226 T10171050 10017 21017 51004

KORD 051151Z 01008KT 10SM FEW008 BKN120 03/01 A3019 RMK AO2 SLP228 T00330011 10033 20017 53020 $

KPDX 051153Z 00000KT 10SM SCT060 OVC075 06/04 A2957 RMK AO2 SLP013 70003 T00610044 10083 20056 56002

KPHL 051154Z 21003KT 10SM OVC060 09/07 A3008 RMK AO2 SLP184 T00940067 10094 20061 53012

KPHX 051151Z 05004KT 10SM CLR 17/01 A2980 RMK AO2 SLP079 T01670006 10228 20161 53006

KPIT 051151Z 00000KT 10SM SCT090 BKN250 08/04 A3003 RMK AO2 SLP178 T00830044 10094 20072 53010

KSAN 051151Z 19007KT 10SM BKN028 OVC038 16/10 A2992 RMK AO2 SLP130 T01610100 10161 20161 55004

KSEA 051153Z 01012KT 10SM OVC050 07/03 A2961 RMK AO2 SLP033 T00670028 10078 20067 56005

KSFO 051156Z 13007KT 10SM BKN020 BKN039 OVC049 12/08 A2964 RMK AO2 RAB07E34 SLP037 P0000 60003 70029 T01170083 10128 20111 58015 $

KSLC 051154Z 28004KT 10SM BKN085 BKN100 09/01 A2970 RMK AO2 SLP030 T00890006 10144 20078 51006

KSTL 051151Z 01005KT 10SM SCT016 OVC027 06/03 A3013 RMK AO2 SLP207 70006 T00610028 10067 20061 53006

KTPA 051153Z 04003KT 10SM FEW024 SCT080 BKN110 OVC200 21/15 A2998 RMK AO2 SLP150 T02110150 10217 20206 53020